Flight Track Log - Related Links

Times and Time Zones

All times are in EDT time to prevent confusion due to time zone crossing. See the UAL906 flight status page for this flight to view local times or setup timezone preferences in your user account.

Time Position Orientation Groundspeed Altitude Reporting Facility
EDT Latitude Longitude Course Direction KTS MPH feet Rate Location/Type
Sat 09:53:47 PM 42.0040 -87.9410 321° Northwest 180 207 1,600  Level FlightAware ADS-B
Sat 09:54:12 PM 42.0250 -87.9360 10° North 205 236 2,200 1,650 Climbing FlightAware ADS-B
Sat 09:54:27 PM 42.0400 -87.9300 17° North 220 253 2,700 1,800 Climbing FlightAware ADS-B
Sat 09:54:42 PM 42.0550 -87.9230 19° North 236 272 3,100 2,100 Climbing FlightAware ADS-B
Sat 09:55:07 PM 42.0830 -87.9120 16° North 255 293 4,100 1,855 Climbing FlightAware ADS-B
Sat 09:55:37 PM 42.1200 -87.8980 16° North 277 319 4,800 2,200 Climbing FlightAware ADS-B
Sat 09:56:07 PM 42.1550 -87.8840 17° North 280 322 6,300 3,055 Climbing FlightAware ADS-B
Sat 09:56:32 PM 42.1860 -87.8730 15° North 284 327 7,600 2,836 Climbing FlightAware ADS-B
Sat 09:57:02 PM 42.2250 -87.8590 15° North 294 338 8,900 2,657 Climbing FlightAware ADS-B
Sat 09:57:42 PM 42.2760 -87.8480 North 304 350 10,700 2,486 Climbing FlightAware ADS-B
Sat 09:58:12 PM 42.3250 -87.8430 North 324 373 11,800 1,714 Climbing FlightAware ADS-B
Sat 09:58:52 PM 42.3850 -87.8180 17° North 361 415 12,700 1,412 Climbing FlightAware ADS-B
Sat 09:59:37 PM 42.4630 -87.7860 17° North 398 458 13,800 1,694 Climbing FlightAware ADS-B
Sat 10:00:17 PM 42.5330 -87.7570 17° North 415 478 15,100 2,329 Climbing FlightAware ADS-B
Sat 10:01:02 PM 42.6180 -87.7210 17° North 418 481 17,100 2,400 Climbing FlightAware ADS-B
Sat 10:01:42 PM 42.6910 -87.6910 17° North 426 490 18,500 1,950 Climbing FlightAware ADS-B
Sat 10:02:22 PM 42.7690 -87.6580 17° North 439 505 19,700 1,906 Climbing FlightAware ADS-B
Sat 10:03:07 PM 42.8500 -87.6090 24° Northeast 442 509 21,200 1,835 Climbing FlightAware ADS-B
Sat 10:03:47 PM 42.9150 -87.5380 39° Northeast 448 516 22,300 1,553 Climbing FlightAware ADS-B
Sat 10:04:32 PM 42.9900 -87.4560 39° Northeast 463 533 23,400 1,624 Climbing FlightAware ADS-B
Sat 10:05:12 PM 43.0530 -87.3870 39° Northeast 465 535 24,600 1,800 Climbing FlightAware ADS-B
Sat 10:05:52 PM 43.1250 -87.3070 39° Northeast 472 543 25,800 1,553 Climbing FlightAware ADS-B
Sat 10:06:37 PM 43.2030 -87.2220 38° Northeast 480 552 26,800 847 Climbing FlightAware ADS-B
Sat 10:07:17 PM 43.2640 -87.1560 38° Northeast 480 552 27,000 1,950 Climbing FlightAware ADS-B
Sat 10:07:57 PM 43.3380 -87.0720 40° Northeast 474 545 29,400 2,612 Climbing FlightAware ADS-B
Sat 10:08:42 PM 43.4150 -86.9870 39° Northeast 470 541 30,700 1,694 Climbing FlightAware ADS-B
Sat 10:09:22 PM 43.4820 -86.9120 39° Northeast 469 540 31,800 1,553 Climbing FlightAware ADS-B
Sat 10:10:07 PM 43.5570 -86.8280 39° Northeast 469 540 32,900 847 Climbing FlightAware ADS-B
Sat 10:10:47 PM 43.6250 -86.7510 39° Northeast 476 548 33,000 71 Climbing FlightAware ADS-B
Sat 10:11:32 PM 43.7000 -86.6670 39° Northeast 474 545 33,000  Level FlightAware ADS-B
Sat 10:12:12 PM 43.7670 -86.5910 39° Northeast 471 542 33,000  Level FlightAware ADS-B
Sat 10:12:47 PM 43.8250 -86.5260 39° Northeast 471 542 33,000  Level FlightAware ADS-B
Sat 10:13:37 PM 43.9160 -86.4220 39° Northeast 478 550 33,000  Level FlightAware ADS-B
Sat 10:14:17 PM 43.9800 -86.3490 39° Northeast 482 555 33,000 635 Level FlightAware ADS-B
Sat 10:15:02 PM 44.0600 -86.2570 40° Northeast 480 552 33,900 1,200 Climbing FlightAware ADS-B
Sat 10:15:42 PM 44.1290 -86.1780 39° Northeast 477 549 34,700 825 Climbing FlightAware ADS-B
Sat 10:16:22 PM 44.1950 -86.1020 40° Northeast 477 549 35,000 212 Climbing FlightAware ADS-B
Sat 10:17:07 PM 44.2700 -86.0150 40° Northeast 474 545 35,000  Level FlightAware ADS-B
Sat 10:17:47 PM 44.3410 -85.9330 40° Northeast 476 548 35,000  Level FlightAware ADS-B
Sat 10:18:32 PM 44.4160 -85.8460 40° Northeast 479 551 35,000  Level FlightAware ADS-B
Sat 10:19:12 PM 44.4830 -85.7670 40° Northeast 481 554 35,000  Level FlightAware ADS-B
Sat 10:19:52 PM 44.5520 -85.6870 40° Northeast 482 555 35,000  Level FlightAware ADS-B
Sat 10:20:37 PM 44.6270 -85.5990 40° Northeast 483 556 35,000  Level FlightAware ADS-B
Sat 10:21:17 PM 44.6830 -85.4970 52° Northeast 489 563 35,000  Level FlightAware ADS-B
Sat 10:21:57 PM 44.7210 -85.3850 64° Northeast 491 565 35,000  Level FlightAware ADS-B
Sat 10:22:42 PM 44.7620 -85.2490 67° East 492 566 35,000  Level FlightAware ADS-B
Sat 10:23:22 PM 44.7980 -85.1310 67° East 493 567 35,000  Level FlightAware ADS-B
Sat 10:24:07 PM 44.8390 -84.9970 67° East 492 566 35,000  Level FlightAware ADS-B
Sat 10:24:47 PM 44.8730 -84.8850 67° East 493 567 35,000  Level FlightAware ADS-B
Sat 10:25:32 PM 44.9120 -84.7570 67° East 492 566 35,000  Level FlightAware ADS-B
Sat 10:26:07 PM 44.9470 -84.6440 66° East 493 567 35,000  Level FlightAware ADS-B
Sat 10:26:52 PM 44.9850 -84.5170 67° East 492 566 35,000  Level FlightAware ADS-B
Sat 10:27:37 PM 45.0240 -84.3860 67° East 493 567 35,000  Level FlightAware ADS-B
Sat 10:28:17 PM 45.0610 -84.2640 67° East 494 568 35,000  Level FlightAware ADS-B
Sat 10:28:57 PM 45.0950 -84.1480 67° East 494 568 35,000  Level FlightAware ADS-B
Sat 10:29:42 PM 45.1340 -84.0180 67° East 494 568 35,000  Level FlightAware ADS-B
Sat 10:30:22 PM 45.1720 -83.8890 67° East 494 568 35,000  Level FlightAware ADS-B
Sat 10:31:07 PM 45.2080 -83.7630 68° East 494 568 35,000  Level FlightAware ADS-B
Sat 10:31:47 PM 45.2450 -83.6360 67° East 495 570 35,000  Level FlightAware ADS-B
Sat 10:32:27 PM 45.2800 -83.5160 67° East 495 570 35,000  Level FlightAware ADS-B
Sat 10:33:12 PM 45.3200 -83.3780 68° East 496 571 35,000  Level FlightAware ADS-B
Sat 10:33:52 PM 45.3550 -83.2570 68° East 495 570 35,000  Level FlightAware ADS-B
Sat 10:34:37 PM 45.3930 -83.1230 68° East 496 571 35,000  Level FlightAware ADS-B
Sat 10:35:17 PM 45.4270 -83.0030 68° East 496 571 35,000  Level FlightAware ADS-B
Sat 10:35:57 PM 45.4610 -82.8810 68° East 496 571 35,000  Level FlightAware ADS-B
Sat 10:36:42 PM 45.4990 -82.7480 68° East 496 571 35,000  Level FlightAware ADS-B
Sat 10:37:22 PM 45.5340 -82.6220 68° East 496 571 35,000  Level FlightAware ADS-B
Sat 10:38:07 PM 45.5710 -82.4890 68° East 496 571 35,000  Level FlightAware ADS-B
Sat 10:38:47 PM 45.6040 -82.3670 69° East 496 571 35,000  Level FlightAware ADS-B
Sat 10:39:27 PM 45.6380 -82.2470 68° East 496 571 35,000  Level FlightAware ADS-B
Sat 10:40:27 PM 45.6880 -82.0610 69° East 496 571 35,000  Level FlightAware ADS-B
Sat 10:41:07 PM 45.7200 -81.9430 69° East 498 573 35,000  Level FlightAware ADS-B
Sat 10:41:52 PM 45.7570 -81.8120 68° East 498 573 35,000  Level FlightAware ADS-B
Sat 10:42:32 PM 45.7860 -81.6990 70° East 499 574 35,000  Level FlightAware ADS-B
Sat 10:43:12 PM 45.8160 -81.5890 69° East 499 574 35,000  Level FlightAware ADS-B
Sat 10:43:52 PM 45.8500 -81.4580 70° East 499 574 35,000  Level FlightAware ADS-B
Sat 10:44:37 PM 45.8880 -81.3150 69° East 501 577 35,000  Level FlightAware ADS-B
Sat 10:45:22 PM 45.9240 -81.1800 69° East 501 577 35,000  Level FlightAware ADS-B
Sat 10:46:02 PM 45.9560 -81.0550 70° East 501 577 35,000  Level FlightAware ADS-B
Sat 10:46:37 PM 45.9860 -80.9420 69° East 501 577 35,000  Level FlightAware ADS-B
Sat 10:47:27 PM 46.0270 -80.7830 70° East 501 577 35,000  Level FlightAware ADS-B
Sat 10:48:07 PM 46.0590 -80.6590 70° East 500 575 35,000  Level FlightAware ADS-B
Sat 10:48:47 PM 46.0900 -80.5360 70° East 500 575 35,000  Level FlightAware ADS-B
Sat 10:49:32 PM 46.1250 -80.3970 70° East 500 575 35,000  Level FlightAware ADS-B
Sat 10:50:12 PM 46.1580 -80.2690 70° East 499 574 35,000  Level FlightAware ADS-B
Sat 10:50:57 PM 46.1910 -80.1360 70° East 499 574 35,000  Level FlightAware ADS-B
Sat 10:51:37 PM 46.2240 -80.0060 70° East 499 574 35,000  Level FlightAware ADS-B
Sat 10:52:22 PM 46.2590 -79.8650 70° East 498 573 35,000  Level FlightAware ADS-B
Sat 10:52:47 PM 46.2760 -79.7970 70° East 499 574 35,000  Level FlightAware ADS-B
Sat 10:53:32 PM 46.3120 -79.6470 71° East 498 573 35,000  Level FlightAware ADS-B
Sat 10:54:12 PM 46.3430 -79.5210 70° East 498 573 35,000  Level FlightAware ADS-B
Sat 10:54:52 PM 46.3740 -79.3950 70° East 497 572 35,000  Level FlightAware ADS-B
Sat 10:55:37 PM 46.4120 -79.2580 68° East 495 570 35,000  Level FlightAware ADS-B
Sat 10:56:17 PM 46.4470 -79.1330 68° East 495 570 35,000  Level FlightAware ADS-B
Sat 10:56:47 PM 46.4720 -79.0410 68° East 495 570 35,000  Level FlightAware ADS-B
Sat 10:57:27 PM 46.5050 -78.9170 69° East 496 571 35,000  Level FlightAware ADS-B
Sat 10:58:07 PM 46.5370 -78.7940 69° East 496 571 35,000  Level FlightAware ADS-B
Sat 10:58:52 PM 46.5740 -78.6540 69° East 496 571 35,000  Level FlightAware ADS-B
Sat 10:59:32 PM 46.6070 -78.5290 69° East 496 571 35,000  Level FlightAware ADS-B
Sat 11:00:17 PM 46.6440 -78.3880 69° East 497 572 35,000  Level FlightAware ADS-B
Sat 11:00:57 PM 46.6750 -78.2690 69° East 496 571 35,000  Level FlightAware ADS-B
Sat 11:01:37 PM 46.7080 -78.1420 69° East 497 572 35,000  Level FlightAware ADS-B
Sat 11:02:22 PM 46.7430 -78.0120 69° East 497 572 35,000  Level FlightAware ADS-B
Sat 11:03:02 PM 46.7710 -77.9050 69° East 497 572 35,000  Level FlightAware ADS-B
Sat 11:03:42 PM 46.7990 -77.7990 69° East 497 572 35,000  Level FlightAware ADS-B
Sat 11:04:22 PM 46.8270 -77.6920 69° East 497 572 35,000  Level FlightAware ADS-B
Sat 11:05:02 PM 46.8550 -77.5850 69° East 497 572 35,000  Level FlightAware ADS-B
Sat 11:05:52 PM 46.8900 -77.4520 69° East 497 572 35,000  Level FlightAware ADS-B
Sat 11:06:32 PM 46.9180 -77.3450 69° East 497 572 35,000  Level FlightAware ADS-B
Sat 11:07:12 PM 46.9460 -77.2380 69° East 497 572 35,000  Level FlightAware ADS-B
Sat 11:07:52 PM 46.9740 -77.1310 69° East 497 572 35,000  Level FlightAware ADS-B
Sat 11:08:32 PM 47.0020 -77.0240 69° East 497 572 35,000  Level FlightAware ADS-B
Sat 11:09:12 PM 47.0300 -76.9170 69° East 497 572 35,000  Level FlightAware ADS-B
Sat 11:09:42 PM 47.0510 -76.8370 69° East 497 572 35,000  Level FlightAware ADS-B
Sat 11:10:32 PM 47.1330 -76.4390 73° East 496 571 35,000  Level FlightAware ADS-B
Sat 11:11:32 PM 47.1770 -76.2570 70° East 495 570 35,000  Level FlightAware ADS-B
Sat 11:12:17 PM 47.2080 -76.1270 71° East 495 570 35,000  Level FlightAware ADS-B
Sat 11:13:07 PM 47.2420 -75.9930 69° East 495 570 35,000  Level FlightAware ADS-B
Sat 11:13:47 PM 47.2680 -75.8850 70° East 495 570 35,000  Level FlightAware ADS-B
Sat 11:14:37 PM 47.3150 -75.6670 72° East 495 570 35,000  Level FlightAware ADS-B
Sat 11:15:27 PM 47.3480 -75.5250 71° East 493 567 35,000  Level FlightAware ADS-B
Sat 11:16:02 PM 47.3780 -75.4050 70° East 491 565 35,000  Level FlightAware ADS-B
Sat 11:16:42 PM 47.4280 -75.2880 58° Northeast 35,000  Level FlightAware ADS-B
Sat 11:17:02 PM 47.4550 -75.2250 58° Northeast 480 552 35,000  Level FlightAware ADS-B
Sat 11:17:52 PM 47.5100 -75.0980 57° Northeast 479 551 35,000  Level FlightAware ADS-B
Sat 11:18:57 PM 47.5840 -74.9240 58° Northeast 480 552 35,000  Level FlightAware ADS-B
Sat 11:19:27 PM 47.6230 -74.8310 58° Northeast 480 552 35,000  Level FlightAware ADS-B
Sat 11:20:12 PM 47.6800 -74.6990 57° Northeast 481 554 35,000  Level FlightAware ADS-B
Sat 11:21:02 PM 47.7390 -74.5600 58° Northeast 482 555 35,000  Level FlightAware ADS-B
Sat 11:21:42 PM 47.7850 -74.4500 58° Northeast 482 555 35,000  Level FlightAware ADS-B
Sat 11:22:27 PM 47.8390 -74.3210 58° Northeast 482 555 35,000  Level FlightAware ADS-B
Sat 11:23:07 PM 47.8860 -74.2090 58° Northeast 482 555 35,000  Level FlightAware ADS-B
Sat 11:24:02 PM 47.9500 -74.0550 58° Northeast 481 554 35,000  Level FlightAware ADS-B
Sat 11:24:47 PM 48.0020 -73.9280 59° Northeast 481 554 35,000  Level FlightAware ADS-B
Sat 11:25:27 PM 48.0490 -73.8160 58° Northeast 480 552 35,000  Level FlightAware ADS-B
Sat 11:26:07 PM 48.0950 -73.7030 59° Northeast 480 552 35,000  Level FlightAware ADS-B
Sat 11:26:52 PM 48.1470 -73.5770 58° Northeast 480 552 35,000  Level FlightAware ADS-B
Sat 11:27:32 PM 48.1930 -73.4620 59° Northeast 480 552 35,000  Level FlightAware ADS-B
Sat 11:28:12 PM 48.2390 -73.3500 58° Northeast 479 551 35,000  Level FlightAware ADS-B
Sat 11:28:57 PM 48.2870 -73.2310 59° Northeast 478 550 35,000  Level FlightAware ADS-B
Sat 11:29:37 PM 48.3350 -73.1100 59° Northeast 478 550 35,000  Level FlightAware ADS-B
Sat 11:30:22 PM 48.3860 -72.9820 59° Northeast 477 549 35,000  Level FlightAware ADS-B
Sat 11:31:17 PM 48.4470 -72.8290 59° Northeast 478 550 35,000  Level FlightAware ADS-B
Sat 11:31:57 PM 48.4940 -72.7110 59° Northeast 478 550 35,000  Level FlightAware ADS-B
Sat 11:32:32 PM 48.5310 -72.6170 59° Northeast 478 550 35,000  Level FlightAware ADS-B
Sat 11:33:22 PM 48.5880 -72.4700 60° Northeast 476 548 35,000  Level FlightAware ADS-B
Sat 11:34:07 PM 48.6350 -72.3500 59° Northeast 475 547 35,000  Level FlightAware ADS-B
Sat 11:34:47 PM 48.6840 -72.2250 59° Northeast 475 547 35,000  Level FlightAware ADS-B
Sat 11:35:37 PM 48.7380 -72.0840 60° Northeast 474 545 35,000  Level FlightAware ADS-B
Sat 11:36:17 PM 48.7780 -71.9810 59° Northeast 473 544 35,000  Level FlightAware ADS-B
Sat 11:37:07 PM 48.8340 -71.8350 60° Northeast 474 545 35,000  Level FlightAware ADS-B
Sat 11:37:47 PM 48.8730 -71.7310 60° Northeast 474 545 35,000  Level FlightAware ADS-B
Sat 11:38:32 PM 48.9290 -71.5850 60° Northeast 475 547 35,000  Level FlightAware ADS-B
Sat 11:39:12 PM 48.9730 -71.4690 60° Northeast 475 547 35,000  Level FlightAware ADS-B
Sat 11:39:47 PM 49.0070 -71.3770 61° Northeast 476 548 35,000  Level FlightAware ADS-B
Sat 11:40:32 PM 49.0580 -71.2400 60° Northeast 476 548 35,000  Level FlightAware ADS-B
Sat 11:41:12 PM 49.1030 -71.1210 60° Northeast 474 545 35,000  Level FlightAware ADS-B
Sat 11:42:02 PM 49.1550 -70.9780 61° Northeast 474 545 35,000  Level FlightAware ADS-B
Sat 11:43:27 PM 49.2450 -70.7330 61° Northeast 473 544 35,000  Level FlightAware ADS-B
Sat 11:43:57 PM 49.2760 -70.6500 60° Northeast 473 544 35,000  Level FlightAware ADS-B
Sat 11:45:02 PM 49.3450 -70.4630 60° Northeast 472 543 35,000  Level FlightAware ADS-B
Sat 11:45:57 PM 49.3980 -70.3120 62° Northeast 473 544 35,000  Level FlightAware ADS-B
Sat 11:46:37 PM 49.4340 -70.2120 61° Northeast 473 544 35,000  Level FlightAware ADS-B
Sat 11:47:17 PM 49.4700 -70.1120 61° Northeast 473 544 35,000  Level FlightAware ADS-B
Sat 11:47:57 PM 49.5060 -70.0120 61° Northeast 473 544 35,000  Level FlightAware ADS-B
Sat 11:48:47 PM 49.5810 -69.7970 62° Northeast 475 547 35,000  Level FlightAware ADS-B
Sat 11:49:37 PM 49.6310 -69.6580 61° Northeast 475 547 35,000  Level FlightAware ADS-B
Sat 11:50:17 PM 49.6670 -69.5570 61° Northeast 475 547 35,000  Level FlightAware ADS-B
Sat 11:51:07 PM 49.7120 -69.4310 61° Northeast 475 547 35,000  Level FlightAware ADS-B
Sat 11:51:47 PM 49.7480 -69.3300 61° Northeast 475 547 35,000  Level FlightAware ADS-B
Sat 11:52:27 PM 49.7850 -69.2280 61° Northeast 475 547 35,000  Level FlightAware ADS-B
Sat 11:53:07 PM 49.8210 -69.1270 61° Northeast 475 547 35,000  Level FlightAware ADS-B
Sat 11:53:47 PM 49.8570 -69.0260 61° Northeast 475 547 35,000  Level FlightAware ADS-B
Sat 11:54:37 PM 49.9020 -68.8990 61° Northeast 475 547 35,000  Level FlightAware ADS-B
Sat 11:55:17 PM 49.9390 -68.7980 60° Northeast 475 547 35,000  Level FlightAware ADS-B
Sat 11:55:57 PM 49.9750 -68.6960 61° Northeast 475 547 35,000  Level FlightAware ADS-B
Sat 11:56:37 PM 50.0110 -68.5940 61° Northeast 475 547 35,000  Level FlightAware ADS-B
Sat 11:57:17 PM 50.0470 -68.4930 61° Northeast 475 547 35,000  Level FlightAware ADS-B
Sat 11:58:07 PM 50.0920 -68.3650 61° Northeast 475 547 35,000  Level FlightAware ADS-B
Sat 11:58:47 PM 50.1290 -68.2630 60° Northeast 475 547 35,000  Level FlightAware ADS-B
Sat 11:59:07 PM 50.2000 -67.9500 60° Northeast 470 541 35,000  Level Gander Center
Sat 11:59:37 PM 50.2333 -67.8333 66° East 470 541 35,000  Level Montreal Center
Sun 12:00:37 AM 50.2833 -67.6333 69° East 470 541 35,000  Level Montreal Center
Sun 12:01:37 AM 50.3500 -67.4667 58° Northeast 470 541 35,000  Level Montreal Center
Sun 12:02:37 AM 50.4000 -67.2667 69° East 470 541 35,000  Level Montreal Center
Sun 12:03:37 AM 50.4667 -67.0667 62° Northeast 480 552 35,000  Level Montreal Center
Sun 12:04:37 AM 50.5167 -66.9000 65° Northeast 480 552 35,000  Level Montreal Center
Sun 12:05:07 AM 50.5500 -66.8333 52° Northeast 480 552 35,000  Level Gander Center
Sun 12:06:07 AM 50.6167 -66.6333 62° Northeast 480 552 35,000  Level Gander Center
Sun 12:06:37 AM 50.6333 -66.5000 79° East 480 552 35,000  Level Montreal Center
Sun 12:07:37 AM 50.7000 -66.3333 58° Northeast 480 552 35,000  Level Montreal Center
Sun 12:08:37 AM 50.7667 -66.1333 62° Northeast 480 552 35,000  Level Montreal Center
Sun 12:09:37 AM 50.8167 -65.9333 68° East 490 564 35,000  Level Montreal Center
Sun 12:10:37 AM 50.8833 -65.7333 62° Northeast 490 564 35,000  Level Montreal Center
Sun 12:11:07 AM 50.9000 -65.6833 62° Northeast 490 564 35,000  Level Gander Center
Sun 12:12:07 AM 50.9667 -65.4833 62° Northeast 490 564 35,000  Level Gander Center
Sun 12:13:07 AM 51.0167 -65.3000 67° East 490 564 35,000  Level Gander Center
Sun 12:14:07 AM 51.0833 -65.0833 64° Northeast 490 564 35,000  Level Gander Center
Sun 12:15:07 AM 51.1333 -64.8833 68° East 490 564 35,000  Level Gander Center
Sun 12:16:07 AM 51.1833 -64.7000 66° East 490 564 35,000  Level Gander Center
Sun 12:17:07 AM 51.2500 -64.5167 60° Northeast 490 564 35,000  Level Gander Center
Sun 12:18:07 AM 51.3000 -64.3000 70° East 490 564 35,000  Level Gander Center
Sun 12:19:07 AM 51.3500 -64.1000 68° East 490 564 35,000  Level Gander Center
Sun 12:20:07 AM 51.4333 -63.9167 54° Northeast 490 564 35,000  Level Gander Center
Sun 12:21:07 AM 51.4667 -63.7000 76° East 490 564 35,000  Level Gander Center
Sun 12:22:07 AM 51.5333 -63.4833 64° Northeast 490 564 35,000  Level Gander Center
Sun 12:23:07 AM 51.5667 -63.3000 74° East 490 564 35,000  Level Gander Center
Sun 12:24:07 AM 51.6500 -63.0833 58° Northeast 490 564 35,000  Level Gander Center
Sun 12:25:07 AM 51.7000 -62.9000 66° East 490 564 35,000  Level Gander Center
Sun 12:26:07 AM 51.7500 -62.6833 69° East 500 575 35,000  Level Gander Center
Sun 12:27:07 AM 51.8000 -62.4667 69° East 500 575 35,000  Level Gander Center
Sun 12:28:07 AM 51.8500 -62.2500 69° East 500 575 35,000  Level Gander Center
Sun 12:29:07 AM 51.9000 -62.0667 66° East 500 575 35,000  Level Gander Center
Sun 12:30:07 AM 51.9500 -61.8500 69° East 490 564 35,000  Level Gander Center
Sun 12:31:07 AM 52.0000 -61.6667 66° East 500 575 35,000  Level Gander Center
Sun 12:32:07 AM 52.0667 -61.4500 63° Northeast 500 575 35,000  Level Gander Center
Sun 12:33:07 AM 52.1167 -61.2333 69° East 500 575 35,000  Level Gander Center
Sun 12:34:07 AM 52.1667 -61.0333 68° East 500 575 35,000  Level Gander Center
Sun 12:35:07 AM 52.2000 -60.8167 76° East 500 575 35,000  Level Gander Center
Sun 12:36:07 AM 52.2500 -60.6000 69° East 500 575 35,000  Level Gander Center
Sun 12:37:07 AM 52.3167 -60.3833 63° Northeast 500 575 35,000  Level Gander Center
Sun 12:38:07 AM 52.3833 -60.1833 61° Northeast 500 575 35,000  Level Gander Center
Sun 12:39:07 AM 52.4500 -60.0000 59° Northeast 500 575 35,000  Level Gander Center
Sun 12:40:07 AM 52.5167 -59.7667 65° Northeast 500 575 35,000  Level Gander Center
Sun 12:41:07 AM 52.5833 -59.5833 59° Northeast 510 587 35,000  Level Gander Center
Sun 12:42:07 AM 52.6500 -59.3500 65° Northeast 510 587 35,000  Level Gander Center
Sun 12:43:07 AM 52.7167 -59.1500 61° Northeast 510 587 35,000  Level Gander Center
Sun 12:44:07 AM 52.7667 -58.9333 69° East 520 598 35,000  Level Gander Center
Sun 12:45:07 AM 52.8333 -58.7333 61° Northeast 520 598 35,000  Level Gander Center
Sun 12:46:07 AM 52.9000 -58.5167 63° Northeast 520 598 35,000  Level Gander Center
Sun 12:47:07 AM 52.9500 -58.2833 70° East 530 610 35,000  Level Gander Center
Sun 12:48:07 AM 53.0333 -58.0500 59° Northeast 530 610 35,000  Level Gander Center
Sun 12:49:07 AM 53.0833 -57.8500 67° East 530 610 35,000  Level Gander Center
Sun 12:50:07 AM 53.1500 -57.6000 66° East 530 610 35,000  Level Gander Center
Sun 12:51:07 AM 53.2167 -57.4000 61° Northeast 540 621 35,000  Level Gander Center
Sun 12:52:07 AM 53.2833 -57.1667 64° Northeast 540 621 35,000  Level Gander Center
Sun 12:53:07 AM 53.3333 -56.9333 70° East 540 621 35,000  Level Gander Center
Sun 12:54:07 AM 53.4000 -56.7167 63° Northeast 540 621 35,000  Level Gander Center
Sun 12:55:07 AM 53.4667 -56.4833 64° Northeast 540 621 35,000  Level Gander Center
Sun 12:56:07 AM 53.5333 -56.2500 64° Northeast 540 621 35,000  Level Gander Center
Sun 12:57:07 AM 53.5833 -56.0167 70° East 540 621 35,000  Level Gander Center
Sun 12:58:07 AM 53.6333 -55.7833 70° East 550 633 35,000  Level Gander Center
Sun 12:59:07 AM 53.7167 -55.5167 62° Northeast 550 633 35,000  Level Gander Center
Sun 01:00:07 AM 53.7667 -55.3167 67° East 550 633 35,000  Level Gander Center
Sun 01:01:07 AM 53.8167 -55.0833 70° East 550 633 35,000  Level Gander Center
Sun 01:02:07 AM 53.9000 -54.8167 62° Northeast 550 633 35,000  Level Gander Center
Sun 01:03:07 AM 53.9333 -54.5833 76° East 550 633 35,000  Level Gander Center
Sun 01:04:07 AM 53.9833 -54.3167 72° East 550 633 35,000  Level Gander Center
Sun 01:05:07 AM 54.0333 -54.1000 68° East 550 633 35,000  Level Gander Center
Sun 01:06:07 AM 54.0833 -53.8667 70° East 560 644 35,000  Level Gander Center
Sun 01:07:07 AM 54.1667 -53.6167 60° Northeast 550 633 35,000  Level Gander Center
Sun 01:08:07 AM 54.2167 -53.3833 70° East 550 633 35,000  Level Gander Center
Sun 01:09:07 AM 54.2667 -53.1667 68° East 540 621 35,000  Level Gander Center
Sun 01:10:07 AM 54.3333 -52.9333 64° Northeast 540 621 35,000  Level Gander Center
Sun 01:10:41 AM 54.3500 -52.7833 79° East 540 621 35,000  Level Gander Center
Sun 01:11:07 AM 54.3833 -52.6833 60° Northeast 540 621 35,000  Level Gander Center
Sun 01:11:41 AM 54.4000 -52.5333 79° East 540 621 35,000  Level Gander Center
Sun 01:14:00 AM 54.5319 -52.1606 68° East  Level FlightAware Approximate
Sun 01:21:00 AM 54.8624 -50.6591 69° East  Level FlightAware Approximate
Sun 01:22:00 AM 54.9081 -50.4426 70° East  Level FlightAware Approximate
Sun 01:23:00 AM 54.9534 -50.2256 70° East  Level FlightAware Approximate
Sun 01:24:00 AM 54.9983 -50.0081 70° East  Level FlightAware Approximate
Sun 01:25:00 AM 55.0511 -49.7958 66° East  Level FlightAware Approximate
Sun 01:26:00 AM 55.1039 -49.5832 66° East  Level FlightAware Approximate
Sun 01:27:00 AM 55.1563 -49.3701 67° East  Level FlightAware Approximate
Sun 01:28:00 AM 55.2085 -49.1556 67° East  Level FlightAware Approximate
Sun 01:29:00 AM 55.2603 -48.9406 67° East  Level FlightAware Approximate
Sun 01:30:00 AM 55.3117 -48.7250 67° East  Level FlightAware Approximate
Sun 01:31:00 AM 55.3628 -48.5088 67° East  Level FlightAware Approximate
Sun 01:32:00 AM 55.4134 -48.2921 68° East  Level FlightAware Approximate
Sun 01:33:00 AM 55.4637 -48.0749 68° East  Level FlightAware Approximate
Sun 01:34:00 AM 55.5136 -47.8571 68° East  Level FlightAware Approximate
Sun 01:35:00 AM 55.5631 -47.6387 68° East  Level FlightAware Approximate
Sun 01:36:00 AM 55.6123 -47.4198 68° East  Level FlightAware Approximate
Sun 01:37:00 AM 55.6609 -47.2002 69° East  Level FlightAware Approximate
Sun 01:38:00 AM 55.7089 -46.9800 69° East  Level FlightAware Approximate
Sun 01:39:00 AM 55.7565 -46.7592 69° East  Level FlightAware Approximate
Sun 01:40:00 AM 55.8036 -46.5378 69° East  Level FlightAware Approximate
Sun 01:41:00 AM 55.8504 -46.3159 69° East  Level FlightAware Approximate
Sun 01:42:00 AM 55.8968 -46.0935 70° East  Level FlightAware Approximate
Sun 01:43:00 AM 55.9427 -45.8706 70° East  Level FlightAware Approximate
Sun 01:44:00 AM 55.9883 -45.6471 70° East  Level FlightAware Approximate
Sun 01:45:00 AM 56.0335 -45.4231 70° East  Level FlightAware Approximate
Sun 01:46:00 AM 56.0782 -45.1986 70° East  Level FlightAware Approximate
Sun 01:47:00 AM 56.1226 -44.9736 70° East  Level FlightAware Approximate
Sun 01:48:00 AM 56.1665 -44.7480 71° East  Level FlightAware Approximate
Sun 01:49:00 AM 56.2101 -44.5220 71° East  Level FlightAware Approximate
Sun 01:50:00 AM 56.2537 -44.2957 71° East  Level FlightAware Approximate
Sun 01:51:00 AM 56.2975 -44.0693 71° East  Level FlightAware Approximate
Sun 01:52:00 AM 56.3409 -43.8424 71° East  Level FlightAware Approximate
Sun 01:53:00 AM 56.3839 -43.6150 71° East  Level FlightAware Approximate
Sun 01:54:00 AM 56.4265 -43.3870 71° East  Level FlightAware Approximate
Sun 01:55:00 AM 56.4686 -43.1586 71° East  Level FlightAware Approximate
Sun 01:56:00 AM 56.5104 -42.9296 72° East  Level FlightAware Approximate
Sun 01:57:00 AM 56.5517 -42.7002 72° East  Level FlightAware Approximate
Sun 01:58:00 AM 56.5926 -42.4702 72° East  Level FlightAware Approximate
Sun 01:59:00 AM 56.6330 -42.2397 72° East  Level FlightAware Approximate
Sun 02:00:00 AM 56.6731 -42.0088 72° East  Level FlightAware Approximate
Sun 02:01:00 AM 56.7127 -41.7774 73° East  Level FlightAware Approximate
Sun 02:02:00 AM 56.7519 -41.5455 73° East  Level FlightAware Approximate
Sun 02:03:00 AM 56.7906 -41.3131 73° East  Level FlightAware Approximate
Sun 02:04:00 AM 56.8291 -41.0792 73° East  Level FlightAware Approximate
Sun 02:05:00 AM 56.8671 -40.8449 73° East  Level FlightAware Approximate
Sun 02:06:00 AM 56.9047 -40.6102 74° East  Level FlightAware Approximate
Sun 02:07:00 AM 56.9418 -40.3749 74° East  Level FlightAware Approximate
Sun 02:08:00 AM 56.9786 -40.1392 74° East  Level FlightAware Approximate
Sun 02:09:00 AM 57.0029 -39.8995 87° East  Level FlightAware Approximate
Sun 02:10:00 AM 57.0095 -39.6543 87° East  Level FlightAware Approximate
Sun 02:11:00 AM 57.0157 -39.4091 87° East  Level FlightAware Approximate
Sun 02:12:00 AM 57.0214 -39.1638 87° East  Level FlightAware Approximate
Sun 02:13:00 AM 57.0267 -38.9184 88° East  Level FlightAware Approximate
Sun 02:14:00 AM 57.0314 -38.6730 88° East  Level FlightAware Approximate
Sun 02:15:00 AM 57.0375 -38.4277 87° East  Level FlightAware Approximate
Sun 02:16:00 AM 57.0444 -38.1823 87° East  Level FlightAware Approximate
Sun 02:17:00 AM 57.0508 -37.9369 87° East  Level FlightAware Approximate
Sun 02:18:00 AM 57.0568 -37.6914 87° East  Level FlightAware Approximate
Sun 02:19:00 AM 57.0623 -37.4458 88° East  Level FlightAware Approximate
Sun 02:20:00 AM 57.0673 -37.2001 88° East  Level FlightAware Approximate
Sun 02:21:00 AM 57.0718 -36.9544 88° East  Level FlightAware Approximate
Sun 02:22:00 AM 57.0758 -36.7086 88° East  Level FlightAware Approximate
Sun 02:23:00 AM 57.0794 -36.4628 88° East  Level FlightAware Approximate
Sun 02:24:00 AM 57.0824 -36.2170 89° East  Level FlightAware Approximate
Sun 02:25:00 AM 57.0850 -35.9711 89° East  Level FlightAware Approximate
Sun 02:26:00 AM 57.0871 -35.7251 89° East  Level FlightAware Approximate
Sun 02:27:00 AM 57.0888 -35.4791 89° East  Level FlightAware Approximate
Sun 02:28:00 AM 57.0899 -35.2332 89° East  Level FlightAware Approximate
Sun 02:29:00 AM 57.0906 -34.9872 90° East  Level FlightAware Approximate
Sun 02:30:00 AM 57.0908 -34.7412 90° East  Level FlightAware Approximate
Sun 02:31:00 AM 57.0905 -34.4952 90° East  Level FlightAware Approximate
Sun 02:32:00 AM 57.0897 -34.2492 90° East  Level FlightAware Approximate
Sun 02:33:00 AM 57.0884 -34.0032 90° East  Level FlightAware Approximate
Sun 02:34:00 AM 57.0867 -33.7573 91° East  Level FlightAware Approximate
Sun 02:35:00 AM 57.0844 -33.5113 91° East  Level FlightAware Approximate
Sun 02:36:00 AM 57.0817 -33.2654 91° East  Level FlightAware Approximate
Sun 02:37:00 AM 57.0785 -33.0196 91° East  Level FlightAware Approximate
Sun 02:38:00 AM 57.0749 -32.7738 91° East  Level FlightAware Approximate
Sun 02:39:00 AM 57.0707 -32.5280 92° East  Level FlightAware Approximate
Sun 02:40:00 AM 57.0661 -32.2823 92° East  Level FlightAware Approximate
Sun 02:41:00 AM 57.0610 -32.0367 92° East  Level FlightAware Approximate
Sun 02:42:00 AM 57.0554 -31.7911 92° East  Level FlightAware Approximate
Sun 02:43:00 AM 57.0493 -31.5456 93° East  Level FlightAware Approximate
Sun 02:44:00 AM 57.0428 -31.3002 93° East  Level FlightAware Approximate
Sun 02:45:00 AM 57.0358 -31.0549 93° East  Level FlightAware Approximate
Sun 02:46:00 AM 57.0282 -30.8096 93° East  Level FlightAware Approximate
Sun 02:47:00 AM 57.0202 -30.5645 93° East  Level FlightAware Approximate
Sun 02:48:00 AM 57.0118 -30.3195 94° East  Level FlightAware Approximate
Sun 02:49:00 AM 57.0028 -30.0746 94° East  Level FlightAware Approximate
Sun 02:50:00 AM 56.9898 -29.8305 96° East  Level FlightAware Approximate
Sun 02:51:00 AM 56.9747 -29.5868 96° East  Level FlightAware Approximate
Sun 02:52:00 AM 56.9591 -29.3433 97° East  Level FlightAware Approximate
Sun 02:53:00 AM 56.9431 -29.1000 97° East  Level FlightAware Approximate
Sun 02:54:00 AM 56.9266 -28.8569 97° East  Level FlightAware Approximate
Sun 02:55:00 AM 56.9096 -28.6140 97° East  Level FlightAware Approximate
Sun 02:56:00 AM 56.8921 -28.3713 97° East  Level FlightAware Approximate
Sun 02:57:00 AM 56.8742 -28.1289 98° East  Level FlightAware Approximate
Sun 02:58:00 AM 56.8558 -27.8867 98° East  Level FlightAware Approximate
Sun 02:59:00 AM 56.8369 -27.6448 98° East  Level FlightAware Approximate
Sun 03:00:00 AM 56.8176 -27.4031 98° East  Level FlightAware Approximate
Sun 03:01:00 AM 56.7978 -27.1617 98° East  Level FlightAware Approximate
Sun 03:02:00 AM 56.7775 -26.9205 99° East  Level FlightAware Approximate
Sun 03:03:00 AM 56.7564 -26.6751 99° East  Level FlightAware Approximate
Sun 03:04:00 AM 56.7348 -26.4300 99° East  Level FlightAware Approximate
Sun 03:05:00 AM 56.7127 -26.1852 99° East  Level FlightAware Approximate
Sun 03:06:00 AM 56.6902 -25.9407 99° East  Level FlightAware Approximate
Sun 03:07:00 AM 56.6671 -25.6964 100° East  Level FlightAware Approximate
Sun 03:08:00 AM 56.6436 -25.4525 100° East  Level FlightAware Approximate
Sun 03:09:00 AM 56.6196 -25.2089 100° East  Level FlightAware Approximate
Sun 03:10:00 AM 56.5952 -24.9656 100° East  Level FlightAware Approximate
Sun 03:11:00 AM 56.5702 -24.7226 100° East  Level FlightAware Approximate
Sun 03:12:00 AM 56.5448 -24.4799 101° East  Level FlightAware Approximate
Sun 03:13:00 AM 56.5189 -24.2376 101° East  Level FlightAware Approximate
Sun 03:14:00 AM 56.4934 -23.9952 101° East  Level FlightAware Approximate
Sun 03:15:00 AM 56.4675 -23.7532 101° East  Level FlightAware Approximate
Sun 03:16:00 AM 56.4411 -23.5115 101° East  Level FlightAware Approximate
Sun 03:17:00 AM 56.4143 -23.2702 101° East  Level FlightAware Approximate
Sun 03:18:00 AM 56.3870 -23.0292 101° East  Level FlightAware Approximate
Sun 03:19:00 AM 56.3592 -22.7886 102° East  Level FlightAware Approximate
Sun 03:20:00 AM 56.3310 -22.5483 102° East  Level FlightAware Approximate
Sun 03:21:00 AM 56.3023 -22.3083 102° East  Level FlightAware Approximate
Sun 03:22:00 AM 56.2731 -22.0688 102° East  Level FlightAware Approximate
Sun 03:23:00 AM 56.2435 -21.8296 102° East  Level FlightAware Approximate
Sun 03:24:00 AM 56.2134 -21.5907 103° East  Level FlightAware Approximate
Sun 03:25:00 AM 56.1829 -21.3523 103° East  Level FlightAware Approximate
Sun 03:26:00 AM 56.1519 -21.1142 103° East  Level FlightAware Approximate
Sun 03:27:00 AM 56.1204 -20.8765 103° East  Level FlightAware Approximate
Sun 03:28:00 AM 56.0885 -20.6392 103° East  Level FlightAware Approximate
Sun 03:29:00 AM 56.0561 -20.4023 104° East  Level FlightAware Approximate
Sun 03:30:00 AM 56.0238 -20.1692 104° East  Level FlightAware Approximate
Sun 03:31:00 AM 55.9929 -19.9357 101° East  Level FlightAware Approximate
Sun 03:32:00 AM 55.9667 -19.7005 101° East  Level FlightAware Approximate
Sun 03:33:00 AM 55.9400 -19.4655 101° East  Level FlightAware Approximate
Sun 03:34:00 AM 55.9128 -19.2310 102° East  Level FlightAware Approximate
Sun 03:35:00 AM 55.8852 -18.9967 102° East  Level FlightAware Approximate
Sun 03:36:00 AM 55.8572 -18.7628 102° East  Level FlightAware Approximate
Sun 03:37:00 AM 55.8289 -18.5292 102° East  Level FlightAware Approximate
Sun 03:38:00 AM 55.8007 -18.2957 102° East  Level FlightAware Approximate
Sun 03:39:00 AM 55.7721 -18.0625 102° East  Level FlightAware Approximate
Sun 03:40:00 AM 55.7431 -17.8296 102° East  Level FlightAware Approximate
Sun 03:40:32 AM 54.8180 -13.5100 103° East 532 612 35,000  Level FlightAware ADS-B
Sun 03:41:00 AM 55.7136 -17.5972 103° East  Level FlightAware Approximate
Sun 03:41:12 AM 54.7960 -13.3420 103° East 531 611 35,000  Level FlightAware ADS-B
Sun 03:42:07 AM 54.7660 -13.1120 103° East 530 610 35,000  Level FlightAware ADS-B
Sun 03:42:52 AM 54.7420 -12.9330 103° East 527 606 35,000  Level FlightAware ADS-B
Sun 03:43:32 AM 54.7180 -12.7610 104° East 527 606 35,000  Level FlightAware ADS-B
Sun 03:44:12 AM 54.6980 -12.6140 103° East 526 605 35,000  Level FlightAware ADS-B
Sun 03:44:57 AM 54.6710 -12.4140 103° East 524 603 35,000  Level FlightAware ADS-B
Sun 03:45:42 AM 54.6460 -12.2380 104° East 524 603 35,000  Level FlightAware ADS-B
Sun 03:46:22 AM 54.6230 -12.0730 103° East 523 602 35,000  Level FlightAware ADS-B
Sun 03:47:02 AM 54.5990 -11.9050 104° East 523 602 35,000  Level FlightAware ADS-B
Sun 03:47:47 AM 54.5730 -11.7290 104° East 524 603 35,000  Level FlightAware ADS-B
Sun 03:48:27 AM 54.5490 -11.5620 104° East 524 603 35,000  Level FlightAware ADS-B
Sun 03:49:12 AM 54.5220 -11.3810 104° East 523 602 35,000  Level FlightAware ADS-B
Sun 03:49:52 AM 54.4980 -11.2180 104° East 523 602 35,000  Level FlightAware ADS-B
Sun 03:50:32 AM 54.4740 -11.0620 105° East 522 601 35,000  Level FlightAware ADS-B
Sun 03:51:17 AM 54.4470 -10.8810 104° East 522 601 35,000  Level FlightAware ADS-B
Sun 03:51:57 AM 54.4230 -10.7320 105° East 521 600 35,000  Level FlightAware ADS-B
Sun 03:52:32 AM 54.4010 -10.5880 105° East 518 596 35,000  Level FlightAware ADS-B
Sun 03:53:17 AM 54.3720 -10.4040 105° East 516 594 35,000  Level FlightAware ADS-B
Sun 03:54:02 AM 54.3450 -10.2330 105° East 515 593 35,000  Level FlightAware ADS-B
Sun 03:54:52 AM 54.3130 -10.0300 105° East 512 589 35,000  Level FlightAware ADS-B
Sun 03:55:42 AM 54.2830 -9.8490 106° East 509 586 35,000  Level FlightAware ADS-B
Sun 03:56:17 AM 54.2610 -9.7150 106° East 507 583 35,000  Level FlightAware ADS-B
Sun 03:57:17 AM 54.2200 -9.4690 106° East 504 580 35,000  Level FlightAware ADS-B
Sun 03:58:02 AM 54.1920 -9.3030 106° East 502 578 35,000  Level FlightAware ADS-B
Sun 03:58:42 AM 54.1690 -9.1620 106° East 500 575 35,000  Level FlightAware ADS-B
Sun 03:59:22 AM 54.1390 -8.9900 106° East 498 573 35,000 -2,143 Level FlightAware ADS-B
Sun 03:59:24 AM 54.1355 -8.9668 106° East 472 543 33,500 -4,500 Descending FlightAware UK
Sun 03:59:42 AM 54.1235 -8.8982 106° East 474 545 33,500  Level FlightAware UK
Sun 04:00:00 AM 54.1117 -8.8302 107° East 472 543 33,500  Level FlightAware UK
Sun 04:00:18 AM 54.1000 -8.7627 106° East 468 539 33,500 -167 Level FlightAware UK
Sun 04:00:36 AM 54.0882 -8.6954 107° East 470 541 33,400 -167 Descending FlightAware UK
Sun 04:00:54 AM 54.0766 -8.6280 106° East 470 541 33,400  Level FlightAware UK
Sun 04:01:12 AM 54.0650 -8.5609 106° East 470 541 33,400 167 Level FlightAware UK
Sun 04:01:30 AM 54.0530 -8.4935 107° East 468 539 33,500 167 Climbing FlightAware UK
Sun 04:01:48 AM 54.0412 -8.4268 107° East 464 534 33,500 -167 Level FlightAware UK
Sun 04:02:06 AM 54.0293 -8.3602 107° East 464 534 33,400 4,737 Descending FlightAware UK
Sun 04:02:07 AM 54.0300 -8.3610 107° East 494 568 35,000  Climbing FlightAware ADS-B
Sun 04:02:24 AM 54.0175 -8.2936 107° East 466 536 33,400 -2,743 Descending FlightAware UK
Sun 04:02:42 AM 54.0055 -8.2272 107° East 464 534 33,400 2,909 Level FlightAware UK
Sun 04:02:57 AM 53.9970 -8.1770 107° East 493 567 35,000  Climbing FlightAware ADS-B
Sun 04:03:12 AM 53.9861 -8.1158 107° East 464 534 33,400 -2,909 Descending FlightAware UK
Sun 04:03:30 AM 53.9742 -8.0490 107° East 462 532 33,400 3,840 Level FlightAware UK
Sun 04:03:37 AM 53.9700 -8.0280 107° East 493 567 35,000  Climbing FlightAware ADS-B
Sun 04:03:54 AM 53.9580 -7.9603 107° East 464 534 33,400 -2,743 Descending FlightAware UK
Sun 04:04:12 AM 53.9459 -7.8939 107° East 464 534 33,400 4,174 Level FlightAware UK
Sun 04:04:17 AM 53.9440 -7.8860 107° East 493 567 35,000 250 Climbing FlightAware ADS-B
Sun 04:04:36 AM 53.9298 -7.8054 107° East 466 536 33,500 -2,432 Descending FlightAware UK
Sun 04:04:54 AM 53.9176 -7.7389 107° East 472 543 33,500 3,462 Level FlightAware UK
Sun 04:05:02 AM 53.9120 -7.7140 107° East 494 568 35,000  Climbing FlightAware ADS-B
Sun 04:05:18 AM 53.9013 -7.6506 107° East 470 541 33,500 -2,647 Descending FlightAware UK
Sun 04:05:36 AM 53.8890 -7.5842 107° East 468 539 33,500 3,750 Level FlightAware UK
Sun 04:05:42 AM 53.8860 -7.5710 107° East 493 567 35,000  Climbing FlightAware ADS-B
Sun 04:06:00 AM 53.8727 -7.4959 107° East 472 543 33,500 -2,500 Descending FlightAware UK
Sun 04:06:18 AM 53.8603 -7.4299 108° East 470 541 33,500 4,091 Level FlightAware UK
Sun 04:06:22 AM 53.8580 -7.4200 108° East 492 566 35,000  Climbing FlightAware ADS-B
Sun 04:06:42 AM 53.8437 -7.3419 108° East 472 543 33,500 -2,368 Descending FlightAware UK
Sun 04:07:00 AM 53.8313 -7.2761 108° East 472 543 33,500 3,600 Level FlightAware UK
Sun 04:07:07 AM 53.8270 -7.2550 108° East 490 564 35,000  Climbing FlightAware ADS-B
Sun 04:07:24 AM 53.8145 -7.1877 108° East 472 543 33,500 -2,571 Descending FlightAware UK
Sun 04:07:42 AM 53.8020 -7.1220 108° East 474 545 33,500 3,913 Level FlightAware UK
Sun 04:07:47 AM 53.8000 -7.1150 108° East 489 563 35,000  Climbing FlightAware ADS-B
Sun 04:08:06 AM 53.7855 -7.0348 108° East 474 545 33,500 -2,432 Descending FlightAware UK
Sun 04:08:24 AM 53.7732 -6.9696 108° East 476 548 33,500 3,462 Level FlightAware UK
Sun 04:08:32 AM 53.7690 -6.9490 108° East 486 559 35,000  Climbing FlightAware ADS-B
Sun 04:08:48 AM 53.7565 -6.8834 108° East 476 548 33,500 -2,647 Descending FlightAware UK
Sun 04:09:06 AM 53.7441 -6.8190 108° East 476 548 33,500 3,750 Level FlightAware UK
Sun 04:09:12 AM 53.7410 -6.8060 108° East 483 556 35,000  Climbing FlightAware ADS-B
Sun 04:09:30 AM 53.7274 -6.7332 108° East 472 543 33,500 -2,500 Descending FlightAware UK
Sun 04:09:48 AM 53.7150 -6.6693 108° East 468 539 33,500 4,091 Level FlightAware UK
Sun 04:09:52 AM 53.7130 -6.6620 108° East 479 551 35,000 -250 Climbing FlightAware ADS-B
Sun 04:10:12 AM 53.6984 -6.5846 108° East 470 541 33,400 -2,526 Descending FlightAware UK
Sun 04:10:30 AM 53.6860 -6.5211 108° East 474 545 33,400 3,840 Level FlightAware UK
Sun 04:10:37 AM 53.6830 -6.5060 108° East 477 549 35,000 250 Climbing FlightAware ADS-B
Sun 04:10:54 AM 53.6697 -6.4366 108° East 470 541 33,500 -2,571 Descending FlightAware UK
Sun 04:11:12 AM 53.6572 -6.3734 108° East 470 541 33,500 3,913 Level FlightAware UK
Sun 04:11:17 AM 53.6550 -6.3640 108° East 477 549 35,000  Climbing FlightAware ADS-B
Sun 04:11:36 AM 53.6404 -6.2892 108° East 470 541 33,500 -2,432 Descending FlightAware UK
Sun 04:11:54 AM 53.6278 -6.2261 109° East 468 539 33,500 3,462 Level FlightAware UK
Sun 04:12:02 AM 53.6250 -6.2110 109° East 476 548 35,000  Climbing FlightAware ADS-B
Sun 04:12:18 AM 53.6110 -6.1420 109° East 466 536 33,500 -2,647 Descending FlightAware UK
Sun 04:12:36 AM 53.5982 -6.0790 109° East 468 539 33,500 3,750 Level FlightAware UK
Sun 04:12:42 AM 53.5950 -6.0630 109° East 477 549 35,000  Climbing FlightAware ADS-B
Sun 04:13:00 AM 53.5811 -5.9943 109° East 466 536 33,500 -2,500 Descending FlightAware UK
Sun 04:13:18 AM 53.5682 -5.9312 109° East 470 541 33,500 3,333 Level FlightAware UK
Sun 04:13:27 AM 53.5630 -5.9050 109° East 478 550 35,000  Climbing FlightAware ADS-B
Sun 04:13:42 AM 53.5513 -5.8468 109° East 472 543 33,500 -2,727 Descending FlightAware UK
Sun 04:14:00 AM 53.5384 -5.7836 109° East 474 545 33,500 3,600 Level FlightAware UK
Sun 04:14:07 AM 53.5350 -5.7660 109° East 478 550 35,000  Climbing FlightAware ADS-B
Sun 04:14:24 AM 53.5211 -5.6996 109° East 472 543 33,500 -2,571 Descending FlightAware UK
Sun 04:14:42 AM 53.5094 -5.6359 107° East 470 541 33,500 3,913 Level FlightAware UK
Sun 04:14:47 AM 53.5090 -5.6290 107° East 478 550 35,000  Climbing FlightAware ADS-B
Sun 04:15:06 AM 53.5006 -5.5481 107° East 470 541 33,500 -2,432 Descending FlightAware UK
Sun 04:15:24 AM 53.4980 -5.4815 94° East 472 543 33,500 3,462 Level FlightAware UK
Sun 04:15:32 AM 53.4980 -5.4650 94° East 480 552 35,000  Climbing FlightAware ADS-B
Sun 04:15:48 AM 53.4952 -5.3924 94° East 472 543 33,500 -2,647 Descending FlightAware UK
Sun 04:16:06 AM 53.4928 -5.3256 93° East 472 543 33,500 3,103 Level FlightAware UK
Sun 04:16:17 AM 53.4920 -5.2940 93° East 480 552 35,000  Climbing FlightAware ADS-B
Sun 04:16:36 AM 53.4890 -5.2143 93° East 472 543 33,500  Descending FlightAware UK
Sun 04:16:57 AM 53.4870 -5.1460 93° East 479 551 35,000  Climbing FlightAware ADS-B
Sun 04:17:12 AM 53.4846 -5.0808 93° East 468 539 33,500  Descending FlightAware UK
Sun 04:17:37 AM 53.4820 -4.9970 93° East 480 552 35,000  Climbing FlightAware ADS-B
Sun 04:17:54 AM 53.4796 -4.9243 93° East 470 541 33,500  Descending FlightAware UK
Sun 04:18:22 AM 53.4760 -4.8290 93° East 481 554 35,000  Climbing FlightAware ADS-B
Sun 04:18:42 AM 53.4732 -4.7460 93° East 472 543 33,500  Descending FlightAware UK
Sun 04:19:02 AM 53.4710 -4.6800 93° East 481 554 35,000  Climbing FlightAware ADS-B
Sun 04:19:18 AM 53.4682 -4.6121 93° East 470 541 33,500  Descending FlightAware UK
Sun 04:19:47 AM 53.4650 -4.5180 93° East 481 554 35,000  Climbing FlightAware ADS-B
Sun 04:20:06 AM 53.4614 -4.4333 93° East 472 543 33,500  Descending FlightAware UK
Sun 04:20:27 AM 53.4590 -4.3670 93° East 482 555 35,000  Climbing FlightAware ADS-B
Sun 04:20:43 AM 53.4563 -4.2986 93° East 472 543 33,500 -2,647 Descending FlightAware UK
Sun 04:21:01 AM 53.4535 -4.2316 94° East 472 543 33,500 3,750 Level FlightAware UK
Sun 04:21:07 AM 53.4530 -4.2200 94° East 480 552 35,000 -250 Climbing FlightAware ADS-B
Sun 04:21:25 AM 53.4497 -4.1426 94° East 466 536 33,400 -2,667 Descending FlightAware UK
Sun 04:21:43 AM 53.4470 -4.0761 94° East 466 536 33,400 3,556 Level FlightAware UK
Sun 04:21:52 AM 53.4460 -4.0480 94° East 476 548 35,000  Climbing FlightAware ADS-B
Sun 04:22:07 AM 53.4432 -3.9877 94° East 464 534 33,400 -2,909 Descending FlightAware UK
Sun 04:22:25 AM 53.4404 -3.9221 94° East 462 532 33,400 3,840 Level FlightAware UK
Sun 04:22:32 AM 53.4400 -3.9030 94° East 474 545 35,000  Climbing FlightAware ADS-B
Sun 04:22:49 AM 53.4366 -3.8343 94° East 462 532 33,400 -2,743 Descending FlightAware UK
Sun 04:23:07 AM 53.4339 -3.7692 94° East 464 534 33,400 3,429 Level FlightAware UK
Sun 04:23:17 AM 53.4330 -3.7440 94° East 475 547 35,000 167 Climbing FlightAware ADS-B
Sun 04:23:43 AM 53.4278 -3.6376 94° East 464 534 33,500  Descending FlightAware UK
Sun 04:23:57 AM 53.4260 -3.5990 94° East 474 545 35,000  Climbing FlightAware ADS-B
Sun 04:24:13 AM 53.4228 -3.5273 94° East 462 532 33,500  Descending FlightAware UK
Sun 04:24:33 AM 53.4193 -3.4552 94° East 473 544 35,000  Climbing FlightAware ADS-B
Sun 04:24:49 AM 53.4165 -3.3958 94° East 468 539 33,500  Descending FlightAware UK
Sun 04:25:04 AM 53.4139 -3.3403 94° East 474 545 35,000  Climbing FlightAware ADS-B
Sun 04:25:19 AM 53.4112 -3.2863 94° East 466 536 33,500  Descending FlightAware UK
Sun 04:25:35 AM 53.4085 -3.2296 94° East 473 544 35,000  Climbing FlightAware ADS-B
Sun 04:25:55 AM 53.4049 -3.1553 94° East 466 536 33,500  Descending FlightAware UK
Sun 04:26:07 AM 53.4027 -3.1137 94° East 473 544 35,000  Climbing FlightAware ADS-B
Sun 04:26:25 AM 53.3994 -3.0457 94° East 466 536 33,500  Descending FlightAware UK
Sun 04:26:37 AM 53.3977 -3.0015 94° East 471 542 35,000  Climbing FlightAware ADS-B
Sun 04:26:55 AM 53.3949 -2.9368 94° East 466 536 33,500  Descending FlightAware UK
Sun 04:27:08 AM 53.3930 -2.8918 94° East 471 542 35,000  Climbing FlightAware ADS-B
Sun 04:27:31 AM 53.3896 -2.8063 94° East 470 541 33,500  Descending FlightAware UK
Sun 04:27:38 AM 53.3888 -2.7809 94° East 470 541 35,000  Climbing FlightAware ADS-B
Sun 04:27:55 AM 53.3863 -2.7185 94° East 470 541 33,500  Descending FlightAware UK
Sun 04:28:09 AM 53.3844 -2.6715 94° East 468 539 35,000  Climbing FlightAware ADS-B
Sun 04:28:25 AM 53.3821 -2.6104 94° East 468 539 33,500  Descending FlightAware UK
Sun 04:28:41 AM 53.3797 -2.5560 94° East 466 536 35,000  Climbing FlightAware ADS-B
Sun 04:29:01 AM 53.3766 -2.4811 94° East 468 539 33,500  Descending FlightAware UK
Sun 04:29:12 AM 53.3749 -2.4435 94° East 465 535 35,000  Climbing FlightAware ADS-B
Sun 04:29:37 AM 53.3712 -2.3524 94° East 466 536 33,500  Descending FlightAware UK
Sun 04:29:45 AM 53.3698 -2.3242 94° East 464 534 35,000  Climbing FlightAware ADS-B
Sun 04:30:07 AM 53.3664 -2.2457 94° East 464 534 33,500  Descending FlightAware UK
Sun 04:30:17 AM 53.3650 -2.2230 94° East 462 532 35,000 4,286 Climbing FlightAware ADS-B
Sun 04:30:28 AM 53.3630 -2.1713 94° East 464 534 35,000 -3,462 Level FlightAware ADS-B
Sun 04:30:43 AM 53.3605 -2.1172 94° East 464 534 33,500  Descending FlightAware UK
Sun 04:30:59 AM 53.3578 -2.0621 94° East 460 529 35,000 1,915 Climbing FlightAware ADS-B
Sun 04:31:30 AM 53.3527 -1.9531 94° East 460 529 35,000  Level FlightAware ADS-B
Sun 04:32:01 AM 53.3474 -1.8428 95° East 459 528 35,000  Level FlightAware ADS-B
Sun 04:32:21 AM 53.3431 -1.7727 96° East 459 528 35,000  Level FlightAware ADS-B
Sun 04:32:51 AM 53.3325 -1.6683 100° East 458 527 35,000 -1,915 Level FlightAware ADS-B
Sun 04:33:08 AM 53.3260 -1.6102 100° East 466 536 33,500  Descending FlightAware UK
Sun 04:33:21 AM 53.3203 -1.5625 100° East 459 528 35,000  Climbing FlightAware ADS-B
Sun 04:33:44 AM 53.3112 -1.4853 100° East 466 536 33,500  Descending FlightAware UK
Sun 04:33:54 AM 53.3069 -1.4506 100° East 458 527 35,000  Climbing FlightAware ADS-B
Sun 04:34:20 AM 53.2958 -1.3602 100° East 466 536 33,500  Descending FlightAware UK
Sun 04:34:29 AM 53.2919 -1.3286 100° East 459 528 35,000  Climbing FlightAware ADS-B
Sun 04:34:50 AM 53.2831 -1.2565 100° East 466 536 33,500  Descending FlightAware UK
Sun 04:35:00 AM 53.2787 -1.2220 100° East 458 527 35,000  Climbing FlightAware ADS-B
Sun 04:35:20 AM 53.2700 -1.1524 100° East 466 536 33,500  Descending FlightAware UK
Sun 04:35:30 AM 53.2656 -1.1177 100° East 456 525 35,000 2,143 Climbing FlightAware ADS-B
Sun 04:36:02 AM 53.2518 -1.0089 102° East 456 525 35,000 -1,714 Level FlightAware ADS-B
Sun 04:36:26 AM 53.2413 -0.9258 102° East 466 536 33,400  Descending FlightAware UK
Sun 04:36:32 AM 53.2400 -0.9160 102° East 456 525 35,000 4,571 Climbing FlightAware ADS-B
Sun 04:36:47 AM 53.2323 -0.8550 102° East 455 524 35,000 -2,500 Level FlightAware ADS-B
Sun 04:37:08 AM 53.2229 -0.7814 102° East 468 539 33,500  Descending FlightAware UK
Sun 04:37:20 AM 53.2179 -0.7434 102° East 453 521 35,000  Climbing FlightAware ADS-B
Sun 04:37:44 AM 53.2070 -0.6588 102° East 468 539 33,500  Descending FlightAware UK
Sun 04:37:57 AM 53.2030 -0.6290 102° East 452 520 35,000 4,737 Climbing FlightAware ADS-B
Sun 04:38:03 AM 53.1990 -0.5976 102° East 452 520 35,000 -2,571 Level FlightAware ADS-B
Sun 04:38:32 AM 53.1856 -0.4955 102° East 464 534 33,500  Descending FlightAware UK
Sun 04:38:40 AM 53.1822 -0.4698 102° East 451 519 35,000 2,308 Climbing FlightAware ADS-B
Sun 04:39:11 AM 53.1685 -0.3662 102° East 452 520 35,000 -1,731 Level FlightAware ADS-B
Sun 04:39:32 AM 53.1587 -0.2926 102° East 466 536 33,500  Descending FlightAware UK
Sun 04:39:41 AM 53.1550 -0.2645 102° East 451 519 35,000  Climbing FlightAware ADS-B
Sun 04:40:03 AM 53.1452 -0.1905 102° East 468 539 33,500  Descending FlightAware UK
Sun 04:40:11 AM 53.1413 -0.1623 102° East 450 518 35,000 2,308 Climbing FlightAware ADS-B
Sun 04:40:42 AM 53.1273 -0.0580 103° East 449 517 35,000  Level FlightAware ADS-B
Sun 04:41:13 AM 53.1134 0.0440 103° East 448 516 35,000  Level FlightAware ADS-B
Sun 04:41:44 AM 53.0989 0.1494 103° East 447 514 35,000 -1,607 Level FlightAware ADS-B
Sun 04:42:09 AM 53.0874 0.2326 103° East 468 539 33,500  Descending FlightAware UK
Sun 04:42:15 AM 53.0847 0.2518 103° East 445 512 35,000  Climbing FlightAware ADS-B
Sun 04:42:33 AM 53.0763 0.3126 103° East 468 539 33,500  Descending FlightAware UK
Sun 04:42:46 AM 53.0705 0.3545 103° East 444 511 35,000  Climbing FlightAware ADS-B
Sun 04:43:03 AM 53.0625 0.4126 103° East 468 539 33,500  Descending FlightAware UK
Sun 04:43:16 AM 53.0565 0.4554 103° East 443 510 35,000  Climbing FlightAware ADS-B
Sun 04:43:33 AM 53.0486 0.5117 103° East 466 536 33,500  Descending FlightAware UK
Sun 04:43:47 AM 53.0420 0.5579 103° East 442 509 35,000  Climbing FlightAware ADS-B
Sun 04:44:09 AM 53.0318 0.6301 103° East 466 536 33,500  Descending FlightAware UK
Sun 04:44:17 AM 53.0300 0.6440 103° East 440 506 35,000 8,182 Climbing FlightAware ADS-B
Sun 04:44:20 AM 53.0269 0.6651 104° East 441 507 35,000  Level FlightAware ADS-B
Sun 04:44:50 AM 53.0126 0.7650 103° East 440 506 35,000  Level FlightAware ADS-B
Sun 04:45:21 AM 52.9983 0.8646 103° East 439 505 35,000  Level FlightAware ADS-B
Sun 04:45:45 AM 52.9868 0.9439 104° East 438 504 35,000  Level FlightAware ADS-B
Sun 04:45:57 AM 52.9808 0.9810 105° East 438 504 35,000 -3,000 Level FlightAware ADS-B
Sun 04:46:15 AM 52.9693 1.0411 105° East 464 534 33,500  Descending FlightAware UK
Sun 04:46:29 AM 52.9605 1.0819 105° East 438 504 35,000  Climbing FlightAware ADS-B
Sun 04:46:52 AM 52.9439 1.1548 105° East 462 532 33,500  Descending FlightAware UK
Sun 04:46:59 AM 52.9394 1.1770 105° East 438 504 35,000  Climbing FlightAware ADS-B
Sun 04:47:15 AM 52.9272 1.2293 105° East 462 532 33,500  Descending FlightAware UK
Sun 04:47:29 AM 52.9178 1.2716 105° East 437 503 35,000  Climbing FlightAware ADS-B
Sun 04:47:45 AM 52.9063 1.3229 105° East 460 529 33,500  Descending FlightAware UK
Sun 04:48:00 AM 52.8961 1.3666 105° East 436 502 35,000  Climbing FlightAware ADS-B
Sun 04:48:16 AM 52.8847 1.4169 105° East 460 529 33,500  Descending FlightAware UK
Sun 04:48:34 AM 52.8720 1.4733 105° East 437 503 35,000  Climbing FlightAware ADS-B
Sun 04:48:52 AM 52.8596 1.5294 105° East 460 529 33,500  Descending FlightAware UK
Sun 04:49:05 AM 52.8499 1.5713 105° East 437 503 35,000  Climbing FlightAware ADS-B
Sun 04:49:22 AM 52.8382 1.6234 105° East 460 529 33,500  Descending FlightAware UK
Sun 04:49:36 AM 52.8277 1.6684 105° East 437 503 35,000  Climbing FlightAware ADS-B
Sun 04:49:58 AM 52.8122 1.7353 105° East 462 532 33,500  Descending FlightAware UK
Sun 04:50:07 AM 52.8062 1.7624 105° East 436 502 35,000  Climbing FlightAware ADS-B
Sun 04:50:22 AM 52.7951 1.8101 105° East 460 529 33,500 -2,727 Descending FlightAware UK
Sun 04:50:40 AM 52.7821 1.8667 111° Southeast 462 532 33,500 3,214 Level FlightAware UK
Sun 04:50:50 AM 52.7745 1.8981 111° Southeast 437 503 35,000 2,195 Climbing FlightAware ADS-B
Sun 04:51:21 AM 52.7521 1.9933 111° Southeast 438 504 35,000 -1,800 Level FlightAware ADS-B
Sun 04:51:40 AM 52.7381 2.0525 111° Southeast 458 527 33,500  Descending FlightAware UK
Sun 04:51:57 AM 52.7280 2.0950 111° Southeast 438 504 35,000 3,750 Climbing FlightAware ADS-B
Sun 04:52:04 AM 52.7209 2.1265 110° East 438 504 35,000 -3,600 Level FlightAware ADS-B
Sun 04:52:22 AM 52.7076 2.1831 110° East 460 529 33,500  Descending FlightAware UK
Sun 04:52:42 AM 52.6940 2.2420 110° East 439 505 35,000 3,462 Climbing FlightAware ADS-B
Sun 04:52:48 AM 52.6888 2.2622 113° Southeast 438 504 35,000 -4,091 Level FlightAware ADS-B
Sun 04:53:04 AM 52.6765 2.3144 113° Southeast 456 525 33,500  Descending FlightAware UK
Sun 04:53:22 AM 52.6660 2.3600 113° Southeast 441 507 35,000  Climbing FlightAware ADS-B
Sun 04:53:40 AM 52.6497 2.4272 113° Southeast 462 532 33,500 -2,500 Descending FlightAware UK
Sun 04:53:58 AM 52.6364 2.4828 111° Southeast 466 536 33,500 4,091 Level FlightAware UK
Sun 04:54:02 AM 52.6340 2.4910 111° Southeast 443 510 35,000  Climbing FlightAware ADS-B
Sun 04:54:22 AM 52.6184 2.5587 111° Southeast 466 536 33,500 -2,368 Descending FlightAware UK
Sun 04:54:40 AM 52.6048 2.6150 112° Southeast 468 539 33,500 3,600 Level FlightAware UK
Sun 04:54:47 AM 52.6030 2.6230 112° Southeast 443 510 35,000  Climbing FlightAware ADS-B
Sun 04:55:04 AM 52.5866 2.6901 112° Southeast 468 539 33,500 -2,571 Descending FlightAware UK
Sun 04:55:22 AM 52.5729 2.7463 112° Southeast 470 541 33,500 3,913 Level FlightAware UK
Sun 04:55:27 AM 52.5720 2.7490 112° Southeast 443 510 35,000  Climbing FlightAware ADS-B
Sun 04:55:46 AM 52.5546 2.8211 112° Southeast 474 545 33,500 -2,432 Descending FlightAware UK
Sun 04:56:04 AM 52.5410 2.8772 112° Southeast 470 541 33,500 4,286 Level FlightAware UK
Sun 04:56:07 AM 52.5420 2.8740 112° Southeast 442 509 35,000  Climbing FlightAware ADS-B
Sun 04:56:22 AM 52.5272 2.9332 112° Southeast 468 539 33,500 -2,250 Descending FlightAware UK
Sun 04:56:47 AM 52.5087 3.0082 112° Southeast 468 539 33,500 3,000 Level FlightAware UK
Sun 04:56:52 AM 52.5070 3.0160 112° Southeast 441 507 35,000  Climbing FlightAware ADS-B
Sun 04:57:11 AM 52.4905 3.0825 112° Southeast 464 534 33,500  Descending FlightAware UK
Sun 04:57:32 AM 52.4760 3.1400 112° Southeast 442 509 35,000  Climbing FlightAware ADS-B
Sun 04:57:53 AM 52.4584 3.2124 112° Southeast 464 534 33,500  Descending FlightAware UK
Sun 04:58:17 AM 52.4410 3.2810 112° Southeast 442 509 35,000 1,406 Climbing FlightAware ADS-B
Sun 04:58:57 AM 52.4100 3.4060 112° Southeast 443 510 35,000 -1,364 Level FlightAware ADS-B
Sun 04:59:23 AM 52.3889 3.4913 112° Southeast 468 539 33,500  Descending FlightAware UK
Sun 04:59:42 AM 52.3750 3.5450 112° Southeast 443 510 35,000  Climbing FlightAware ADS-B
Sun 05:00:05 AM 52.3565 3.6213 112° Southeast 462 532 33,500  Descending FlightAware UK
Sun 05:00:22 AM 52.3440 3.6700 112° Southeast 445 512 35,000  Climbing FlightAware ADS-B
Sun 05:00:59 AM 52.3139 3.7886 112° Southeast 468 539 33,500  Descending FlightAware UK
Sun 05:01:02 AM 52.3120 3.7940 112° Southeast 446 513 35,000 1,875 Climbing FlightAware ADS-B
Sun 05:01:47 AM 52.2780 3.9300 112° Southeast 447 514 35,000  Level FlightAware ADS-B
Sun 05:02:27 AM 52.2450 4.0570 113° Southeast 449 517 35,000 -1,250 Level FlightAware ADS-B
Sun 05:02:59 AM 52.2181 4.1621 113° Southeast 468 539 33,500  Descending FlightAware UK
Sun 05:03:07 AM 52.2130 4.1820 113° Southeast 450 518 35,000 1,698 Climbing FlightAware ADS-B
Sun 05:03:52 AM 52.1770 4.3190 113° Southeast 450 518 35,000 -1,184 Level FlightAware ADS-B
Sun 05:04:23 AM 52.1502 4.4242 113° Southeast 472 543 33,500  Descending FlightAware UK
Sun 05:04:32 AM 52.1450 4.4440 113° Southeast 452 520 35,000  Climbing FlightAware ADS-B
Sun 05:04:47 AM 52.1306 4.4989 113° Southeast 476 548 33,500 -2,727 Descending FlightAware UK
Sun 05:05:05 AM 52.1154 4.5557 113° Southeast 468 539 33,500 3,000 Level FlightAware UK
Sun 05:05:17 AM 52.1070 4.5870 113° Southeast 451 519 35,000 1,731 Climbing FlightAware ADS-B
Sun 05:05:57 AM 52.0740 4.7120 113° Southeast 446 513 35,000 -1,500 Level FlightAware ADS-B
Sun 05:06:17 AM 52.0570 4.7794 113° Southeast 468 539 33,500  Descending FlightAware UK
Sun 05:06:37 AM 52.0410 4.8340 113° Southeast 444 511 35,000  Climbing FlightAware ADS-B
Sun 05:06:53 AM 52.0262 4.8881 113° Southeast 464 534 33,500  Descending FlightAware UK
Sun 05:07:22 AM 52.0060 4.9650 113° Southeast 442 509 35,000  Climbing FlightAware ADS-B
Sun 05:07:53 AM 51.9767 5.0692 113° Southeast 464 534 33,500  Descending FlightAware UK
Sun 05:08:02 AM 51.9720 5.0920 113° Southeast 442 509 35,000  Climbing FlightAware ADS-B
Sun 05:08:17 AM 51.9592 5.1435 113° Southeast 460 529 33,500  Descending FlightAware UK
Sun 05:08:47 AM 51.9360 5.2260 113° Southeast 446 513 35,000  Climbing FlightAware ADS-B
Sun 05:09:11 AM 51.9137 5.3072 113° Southeast 458 527 33,500  Descending FlightAware UK
Sun 05:09:27 AM 51.9030 5.3480 113° Southeast 450 518 35,000  Climbing FlightAware ADS-B
Sun 05:09:47 AM 51.8828 5.4172 113° Southeast 462 532 33,500  Descending FlightAware UK
Sun 05:10:12 AM 51.8630 5.4930 113° Southeast 456 525 35,000  Climbing FlightAware ADS-B
Sun 05:10:29 AM 51.8475 5.5490 113° Southeast 468 539 33,500 -2,571 Descending FlightAware UK
Sun 05:10:47 AM 51.8325 5.6058 113° Southeast 470 541 33,500 3,913 Level FlightAware UK
Sun 05:10:52 AM 51.8280 5.6140 113° Southeast 460 529 35,000  Climbing FlightAware ADS-B
Sun 05:11:11 AM 51.8097 5.6803 113° Southeast 476 548 33,500 -2,432 Descending FlightAware UK
Sun 05:11:29 AM 51.7895 5.7324 122° Southeast 476 548 33,500 4,286 Level FlightAware UK
Sun 05:11:32 AM 51.7800 5.7250 122° Southeast 457 526 35,000  Climbing FlightAware ADS-B
Sun 05:11:47 AM 51.7587 5.7733 122° Southeast 484 557 33,500 -2,727 Descending FlightAware UK
Sun 05:12:05 AM 51.7326 5.8179 133° Southeast 484 557 33,500 3,600 Level FlightAware UK
Sun 05:12:12 AM 51.7290 5.8230 133° Southeast 449 517 35,000  Climbing FlightAware ADS-B
Sun 05:12:29 AM 51.6972 5.8770 133° Southeast 472 543 33,500  Descending FlightAware UK
Sun 05:12:57 AM 51.6680 5.9390 133° Southeast 448 516 35,000 1,233 Climbing FlightAware ADS-B
Sun 05:13:42 AM 51.6050 6.0560 131° Southeast 448 516 35,000  Level FlightAware ADS-B
Sun 05:14:27 AM 51.5470 6.1640 131° Southeast 450 518 35,000  Level FlightAware ADS-B
Sun 05:15:12 AM 51.4870 6.2770 130° Southeast 451 519 35,000 -225 Level FlightAware ADS-B
Sun 05:15:47 AM 51.4350 6.3730 131° Southeast 440 506 34,700 -1,040 Descending FlightAware ADS-B
Sun 05:16:27 AM 51.3840 6.4660 131° Southeast 436 502 33,700 -1,200 Descending FlightAware ADS-B
Sun 05:17:12 AM 51.3260 6.5730 131° Southeast 437 503 33,000 -442 Descending FlightAware ADS-B
Sun 05:18:02 AM 51.2600 6.6940 131° Southeast 443 510 33,000  Level FlightAware ADS-B
Sun 05:18:52 AM 51.1960 6.8120 131° Southeast 444 511 33,000  Level FlightAware ADS-B
Sun 05:19:32 AM 51.1350 6.9210 132° Southeast 442 509 33,000  Level FlightAware ADS-B
Sun 05:20:12 AM 51.0810 7.0190 131° Southeast 445 512 33,000  Level FlightAware ADS-B
Sun 05:20:52 AM 51.0250 7.1190 132° Southeast 447 514 33,000  Level FlightAware ADS-B
Sun 05:21:37 AM 50.9630 7.2310 131° Southeast 454 522 33,000  Level FlightAware ADS-B
Sun 05:22:22 AM 50.9010 7.3410 132° Southeast 454 522 33,000  Level FlightAware ADS-B
Sun 05:22:57 AM 50.8510 7.4300 132° Southeast 455 524 33,000  Level FlightAware ADS-B
Sun 05:23:42 AM 50.7860 7.5440 132° Southeast 453 521 33,000  Level FlightAware ADS-B
Sun 05:24:27 AM 50.7330 7.6390 131° Southeast 446 513 33,000  Level FlightAware ADS-B
Sun 05:25:07 AM 50.6670 7.7530 132° Southeast 451 519 33,000  Level FlightAware ADS-B
Sun 05:25:52 AM 50.6110 7.8530 131° Southeast 445 512 33,000  Level FlightAware ADS-B
Sun 05:26:27 AM 50.5620 7.9370 133° Southeast 452 520 33,000  Level FlightAware ADS-B
Sun 05:27:12 AM 50.4990 8.0460 132° Southeast 454 522 33,000  Level FlightAware ADS-B
Sun 05:27:57 AM 50.4310 8.1580 134° Southeast 454 522 33,000  Level FlightAware ADS-B
Sun 05:28:37 AM 50.3720 8.2500 135° Southeast 456 525 33,000  Level FlightAware ADS-B
Sun 05:29:22 AM 50.3040 8.3570 135° Southeast 458 527 33,000  Level FlightAware ADS-B
Sun 05:30:02 AM 50.2410 8.4560 135° Southeast 459 528 33,000  Level FlightAware ADS-B
Sun 05:30:42 AM 50.1820 8.5480 135° Southeast 459 528 33,000  Level FlightAware ADS-B
Sun 05:31:27 AM 50.1130 8.6570 135° Southeast 460 529 33,000  Level FlightAware ADS-B
Sun 05:32:07 AM 50.0530 8.7500 135° Southeast 460 529 33,000  Level FlightAware ADS-B
Sun 05:32:47 AM 49.9930 8.8430 135° Southeast 461 531 33,000  Level FlightAware ADS-B
Sun 05:33:32 AM 49.9260 8.9460 135° Southeast 461 531 33,000  Level FlightAware ADS-B
Sun 05:34:12 AM 49.8640 9.0400 136° Southeast 462 532 33,000  Level FlightAware ADS-B
Sun 05:34:47 AM 49.8130 9.1190 135° Southeast 463 533 33,000  Level FlightAware ADS-B
Sun 05:35:32 AM 49.7440 9.2250 135° Southeast 463 533 33,000  Level FlightAware ADS-B
Sun 05:36:12 AM 49.6850 9.3140 136° Southeast 464 534 33,000  Level FlightAware ADS-B
Sun 05:36:52 AM 49.6230 9.4090 135° Southeast 464 534 33,000  Level FlightAware ADS-B
Sun 05:37:37 AM 49.5580 9.5210 132° Southeast 467 537 33,000  Level FlightAware ADS-B
Sun 05:38:12 AM 49.5120 9.6000 132° Southeast 467 537 33,000 -918 Level FlightAware ADS-B
Sun 05:39:02 AM 49.4390 9.7280 131° Southeast 472 543 31,700 -1,867 Descending FlightAware ADS-B
Sun 05:39:42 AM 49.3800 9.8320 131° Southeast 456 525 30,200 -2,471 Descending FlightAware ADS-B
Sun 05:40:27 AM 49.3180 9.9380 132° Southeast 444 511 28,200 -2,471 Descending FlightAware ADS-B
Sun 05:41:07 AM 49.2700 10.0210 132° Southeast 439 505 26,700 -2,188 Descending FlightAware ADS-B
Sun 05:41:52 AM 49.2060 10.1300 132° Southeast 415 478 25,100 -1,200 Descending FlightAware ADS-B
Sun 05:42:32 AM 49.1540 10.2190 132° Southeast 427 491 25,000 -75 Descending FlightAware ADS-B
Sun 05:43:12 AM 49.0990 10.3090 133° Southeast 426 490 25,000  Level FlightAware ADS-B
Sun 05:43:52 AM 49.0480 10.3900 134° Southeast 424 488 25,000 -494 Level FlightAware ADS-B
Sun 05:44:37 AM 48.9840 10.4920 134° Southeast 432 497 24,300 -1,906 Descending FlightAware ADS-B
Sun 05:45:17 AM 48.9340 10.5720 134° Southeast 428 493 22,300 -2,618 Descending FlightAware ADS-B
Sun 05:47:00 AM 48.7621 10.8221 120° Southeast  Level FlightAware Approximate
Sun 05:48:00 AM 48.6933 10.9987 123° Southeast  Level FlightAware Approximate
Sun 05:49:00 AM 48.6186 11.1696 123° Southeast  Level FlightAware Approximate
Sun 05:49:12 AM 48.6260 11.0320 123° Southeast 371 427 12,300  Level FlightAware ADS-B
Sun 05:49:52 AM 48.5850 11.1010 132° Southeast 362 417 11,200 -1,114 Descending FlightAware ADS-B
Sun 05:50:22 AM 48.5690 11.1770 108° East 365 420 11,000 -185 Descending FlightAware ADS-B
Sun 05:50:57 AM 48.5610 11.2660 98° East 367 422 11,000  Level FlightAware ADS-B
Sun 05:51:57 AM 48.5490 11.4230 97° East 330 380 11,000 -57 Level FlightAware ADS-B
Sun 05:52:42 AM 48.5420 11.5160 96° East 295 339 10,900 -565 Descending FlightAware ADS-B
Sun 05:53:22 AM 48.5350 11.5980 97° East 293 337 10,200 -1,114 Descending FlightAware ADS-B
Sun 05:53:52 AM 48.5300 11.6570 97° East 293 337 9,600 -1,309 Descending FlightAware ADS-B
Sun 05:54:17 AM 48.5260 11.7090 97° East 290 334 9,000 -1,418 Descending FlightAware ADS-B
Sun 05:54:47 AM 48.5210 11.7710 97° East 288 331 8,300 -1,309 Descending FlightAware ADS-B
Sun 05:55:12 AM 48.5170 11.8190 97° East 286 329 7,800 -1,309 Descending FlightAware ADS-B
Sun 05:55:42 AM 48.5120 11.8780 97° East 282 325 7,100 -1,300 Descending FlightAware ADS-B
Sun 05:56:12 AM 48.5070 11.9370 97° East 279 321 6,500 -1,200 Descending FlightAware ADS-B
Sun 05:56:22 AM 48.5060 11.9540 95° East 278 320 6,300 -1,200 Descending FlightAware ADS-B
Sun 05:56:52 AM 48.5010 12.0120 97° East 272 313 5,700 -1,200 Descending FlightAware ADS-B
Sun 05:57:22 AM 48.4960 12.0690 98° East 266 306 5,100 -764 Descending FlightAware ADS-B
Sun 05:57:47 AM 48.4930 12.1110 96° East 249 287 5,000 -109 Descending FlightAware ADS-B
Sun 05:58:17 AM 48.4890 12.1610 97° East 233 268 5,000  Level FlightAware ADS-B
Sun 05:58:32 AM 48.4840 12.1860 107° East 232 267 5,000  Level FlightAware ADS-B
Sun 05:58:42 AM 48.4780 12.1970 129° Southeast 224 258 5,000 -240 Level FlightAware ADS-B
Sun 05:58:57 AM 48.4630 12.2060 158° South 230 265 4,900 -800 Descending FlightAware ADS-B
Sun 05:59:12 AM 48.4470 12.2100 171° South 229 264 4,600 -1,067 Descending FlightAware ADS-B
Sun 05:59:42 AM 48.4190 12.1920 203° Southwest 225 259 4,100 -655 Descending FlightAware ADS-B
Sun 06:00:07 AM 48.4030 12.1620 231° Southwest 230 265 4,000 -109 Descending FlightAware ADS-B
Sun 06:00:37 AM 48.3860 12.1220 237° Southwest 221 254 4,000  Level FlightAware ADS-B
Sun 06:01:07 AM 48.3870 12.0780 272° West 222 255 4,000  Level FlightAware ADS-B
Sun 06:01:32 AM 48.3830 12.0370 262° West 222 255 4,000 -218 Level FlightAware ADS-B
Sun 06:02:02 AM 48.3800 11.9940 264° West 202 232 3,800 -764 Descending FlightAware ADS-B
Sun 06:02:27 AM 48.3770 11.9590 263° West 199 229 3,300 -1,091 Descending FlightAware ADS-B
Sun 06:02:57 AM 48.3740 11.9200 263° West 171 197 2,800 -982 Descending FlightAware ADS-B
Sun 06:03:22 AM 48.3720 11.8930 264° West 142 163 2,400 -873 Descending FlightAware ADS-B
Sun 06:03:52 AM 48.3700 11.8650 264° West 133 153 2,000 -700 Descending FlightAware ADS-B
Sun 06:04:22 AM 48.3680 11.8370 264° West 131 151 1,700 -655 Descending FlightAware ADS-B
Sun 06:04:47 AM 48.3660 11.8150 262° West 130 150 1,400 -720 Descending FlightAware ADS-B

Login

Don't have an account? Register now (free) for customized features, flight alerts, and more!